createdAt,value
2022-10-03T06:47:30.222Z,50.66
2022-10-03T06:52:22.119Z,50.12
2022-10-03T06:57:14.723Z,49.95
2022-10-03T07:02:07.361Z,49.77
2022-10-03T07:07:00.007Z,49.83
2022-10-03T07:11:52.622Z,50.19
2022-10-03T07:16:45.485Z,50.59
2022-10-03T07:21:38.146Z,50.42
2022-10-03T07:26:30.218Z,50.59
2022-10-03T07:31:22.754Z,50.62
2022-10-03T07:36:15.139Z,50.66
2022-10-03T07:41:07.767Z,50.58
2022-10-03T07:46:00.463Z,50.54
2022-10-03T07:50:53.001Z,50.54
2022-10-03T07:55:46.016Z,50.62
2022-10-03T08:00:40.753Z,50.69
2022-10-03T08:05:31.415Z,50.53
2022-10-03T08:10:23.803Z,50.59
2022-10-03T08:15:16.244Z,50.51
2022-10-03T08:20:08.838Z,50.53
2022-10-03T08:25:02.826Z,50.58
2022-10-03T08:29:53.941Z,50.55
2022-10-03T08:34:46.811Z,50.52
2022-10-03T08:39:39.323Z,50.53
2022-10-03T08:44:31.965Z,50.54
2022-10-03T08:49:24.534Z,50.55
2022-10-03T08:54:17.167Z,50.49
2022-10-03T08:59:09.861Z,50.35
2022-10-03T09:04:02.505Z,50.56
2022-10-03T09:08:55.021Z,50.62
2022-10-03T09:13:47.590Z,50.61
2022-10-03T09:18:40.252Z,50.61
2022-10-03T09:23:32.877Z,50.35
2022-10-03T09:28:25.927Z,49.5
2022-10-03T09:33:18.306Z,50.46
2022-10-03T09:38:11.053Z,49.5
2022-10-03T09:43:03.864Z,50.31
2022-10-03T09:47:56.540Z,49.3
2022-10-03T09:52:49.001Z,49.84
2022-10-03T09:57:41.560Z,50.01
2022-10-03T10:02:33.898Z,50.29
2022-10-03T10:07:26.458Z,49.17
2022-10-03T10:12:19.240Z,50.6
2022-10-03T10:17:11.991Z,50.1
2022-10-03T10:22:04.030Z,49.18
2022-10-03T10:26:56.423Z,49.37
2022-10-03T10:31:48.632Z,49.61
2022-10-03T10:36:41.731Z,49.57
2022-10-03T10:41:33.689Z,49.64
2022-10-03T10:46:26.529Z,49.8
2022-10-03T10:56:11.760Z,50.15
2022-10-03T11:05:56.825Z,49.9
2022-10-03T11:10:49.395Z,50.11
2022-10-03T11:15:41.918Z,50.24
2022-10-03T11:20:34.638Z,50.34
2022-10-03T11:25:27.046Z,50.22
2022-10-03T11:30:19.447Z,50.45
2022-10-03T11:35:12.172Z,50.19
2022-10-03T11:40:04.892Z,50.2
2022-10-03T11:44:57.526Z,50.3
2022-10-03T11:49:50.038Z,50.43
2022-10-03T11:54:42.840Z,50.31
2022-10-03T11:59:35.376Z,50.44
2022-10-03T12:04:28.075Z,50.61
2022-10-03T12:09:20.598Z,50.55
2022-10-03T12:14:13.298Z,50.46
2022-10-03T12:19:05.744Z,50.48
2022-10-03T12:23:58.395Z,50.45
2022-10-03T12:28:50.903Z,50.54
2022-10-03T12:33:43.737Z,50.75
2022-10-03T12:38:36.264Z,50.79
2022-10-03T12:43:28.677Z,50.68
2022-10-03T12:48:21.440Z,50.74
2022-10-03T12:53:13.875Z,50.9
2022-10-03T12:58:06.493Z,50.82
2022-10-03T13:02:58.965Z,50.91
2022-10-03T13:07:51.651Z,50.96
2022-10-03T13:12:44.026Z,50.87
2022-10-03T13:17:36.575Z,50.92
2022-10-03T13:22:29.333Z,50.91
2022-10-03T13:27:21.672Z,50.85
2022-10-03T13:32:14.278Z,50.93
2022-10-03T13:37:07.161Z,49.04
2022-10-03T13:41:59.825Z,50.25
2022-10-03T13:46:52.363Z,50.37
2022-10-03T13:51:45.005Z,50.61
2022-10-03T13:56:37.677Z,50.96
2022-10-03T14:01:30.451Z,50.37
2022-10-03T14:06:22.926Z,50.58
2022-10-03T14:11:15.553Z,50.73
2022-10-03T14:16:08.195Z,50.63
2022-10-03T14:21:00.263Z,50.88
2022-10-03T14:25:52.536Z,50.79
2022-10-03T14:31:04.389Z,50.95
2022-10-03T14:35:37.633Z,51.06
2022-10-03T14:40:30.262Z,51.03
2022-10-03T14:45:22.761Z,51.07
2022-10-03T14:50:15.447Z,51.24
2022-10-03T14:55:08.016Z,51.26
2022-10-03T15:00:00.526Z,51.19
2022-10-03T15:04:53.139Z,51.26
2022-10-03T15:09:45.601Z,51.3
2022-10-03T15:14:38.290Z,51.48
2022-10-03T15:19:30.693Z,51.49
2022-10-03T15:24:25.420Z,51.48
2022-10-03T15:29:15.807Z,51.62
2022-10-03T15:34:08.351Z,51.65
2022-10-03T15:39:00.864Z,51.72
2022-10-03T15:43:53.262Z,51.54
2022-10-03T15:48:47.563Z,51.69
2022-10-03T15:53:38.216Z,51.83
2022-10-03T15:58:30.826Z,51.8
2022-10-03T16:03:23.553Z,51.92
2022-10-03T16:13:08.922Z,51.98
2022-10-03T16:22:54.602Z,52.24
2022-10-03T16:32:39.945Z,52.19
2022-10-03T16:37:32.321Z,53.35
2022-10-03T16:42:25.097Z,52.45
2022-10-03T16:47:17.289Z,51.32
2022-10-03T16:52:09.380Z,51.68
2022-10-03T16:57:01.975Z,51.7
2022-10-03T17:01:56.373Z,51.93
2022-10-03T17:06:47.600Z,51.98
2022-10-03T17:11:40.496Z,52.07
2022-10-03T17:16:32.838Z,52.07
2022-10-03T17:21:25.468Z,52.09
2022-10-03T17:26:17.886Z,52.06
2022-10-03T17:31:10.601Z,52.02
2022-10-03T17:36:03.123Z,52
2022-10-03T17:40:55.452Z,52.22
2022-10-03T17:45:48.040Z,52.02
2022-10-03T17:50:40.509Z,52.08
2022-10-03T17:55:33.347Z,51.94
2022-10-03T18:00:25.819Z,51.98
2022-10-03T18:05:18.302Z,52.08
2022-10-03T18:10:10.852Z,52.19
2022-10-03T18:15:03.337Z,51.98
2022-10-03T18:19:55.862Z,52.14
2022-10-03T18:24:48.393Z,52.11
2022-10-03T18:29:41.037Z,52.26
2022-10-03T18:34:33.368Z,52.3
2022-10-03T18:39:25.619Z,52.5
2022-10-03T18:44:19.231Z,52.55
2022-10-03T18:54:03.682Z,52.64
2022-10-03T18:58:56.174Z,52.67
2022-10-03T19:03:48.867Z,52.61
2022-10-03T19:08:41.428Z,52.69
2022-10-03T19:13:33.904Z,52.84
2022-10-03T19:18:26.568Z,52.86
2022-10-03T19:23:19.021Z,52.81
2022-10-03T19:28:11.697Z,52.79
2022-10-03T19:33:03.956Z,52.68
2022-10-03T19:37:56.237Z,52.18
2022-10-03T19:42:48.746Z,52.17
2022-10-03T19:47:41.480Z,51.91
2022-10-03T19:52:33.992Z,52.07
2022-10-03T19:57:26.662Z,52.09
2022-10-03T20:02:18.886Z,52.04
2022-10-03T20:07:11.495Z,52.09
2022-10-03T20:12:03.992Z,52.17
2022-10-03T20:16:56.657Z,52.13
2022-10-03T20:21:49.184Z,52.18
2022-10-03T20:26:41.888Z,52.16
2022-10-03T20:31:34.028Z,52.11
2022-10-03T20:36:26.525Z,52.31
2022-10-03T20:41:18.914Z,52.2
2022-10-03T20:46:11.846Z,52.23
2022-10-03T20:51:04.281Z,52.2
2022-10-03T20:55:51.721Z,52.24
2022-10-03T21:00:44.335Z,52.24
2022-10-03T21:05:37.609Z,52.22
2022-10-03T21:10:30.251Z,52.22
2022-10-03T21:15:24.350Z,52.24
2022-10-03T21:20:15.523Z,52.16
2022-10-03T21:25:08.117Z,52.18
2022-10-03T21:30:00.880Z,52.26
2022-10-03T21:34:53.293Z,52.29
2022-10-03T21:39:45.715Z,52.3
2022-10-03T21:44:37.850Z,52.21
2022-10-03T21:49:30.000Z,52.3
2022-10-03T21:59:14.974Z,52.17
2022-10-03T22:09:00.159Z,52.25
2022-10-03T22:18:45.552Z,52.26
2022-10-03T22:23:37.771Z,52.29
2022-10-03T22:28:30.038Z,52.26
2022-10-03T22:33:22.659Z,52.22
2022-10-03T22:38:15.275Z,52.14
2022-10-03T22:43:08.042Z,52.2
2022-10-03T22:48:00.215Z,52.37
2022-10-03T22:52:52.774Z,52.25
2022-10-03T22:57:45.661Z,52.26
2022-10-03T23:02:38.558Z,52.24
2022-10-03T23:07:31.041Z,52.28
2022-10-03T23:12:23.712Z,52.2
2022-10-03T23:17:16.239Z,52.31
2022-10-03T23:22:08.978Z,52.32
2022-10-03T23:27:01.317Z,52.31
2022-10-03T23:31:59.477Z,52.22
2022-10-03T23:36:51.138Z,52.36
2022-10-03T23:41:43.409Z,52.34
2022-10-03T23:46:35.463Z,52.43
2022-10-03T23:51:27.815Z,52.46
2022-10-03T23:56:20.309Z,52.42
